RCTP/TPE METAR and TAF weather

Enter ICAO airport designator
Station Type Date Time Source
RCTP METAR 2020/08/15 09:51 UTC NOAA

RCTP 150951Z 20006KT 9999 FEW010 BKN015 BKN040 27/27 Q1008 NOSIG RMK A2979


Station Type Date Time Source
RCTP Decoded METAR 2020/08/15 09:51 UTC NOAA

Chiang Kai Shek, Taiwan (RCTP) 25-05N 121-13E
Aug 15, 2020 - 05:51 AM EDT / 2020.08.15 0951 UTC
Wind: from the SSW (200 degrees) at 7 MPH (6 KT):0
Visibility: greater than 7 mile(s):0
Sky conditions: mostly cloudy
Temperature: 80 F (27 C)
Dew Point: 80 F (27 C)
Relative Humidity: 100%
Pressure (altimeter): 29.77 in. Hg (1008 hPa)
ob: RCTP 150951Z 20006KT 9999 FEW010 BKN015 BKN040 27/27 Q1008 NOSIG RMK A2979
cycle: 10

Station Type Date Time Source
RCTP TAF 2020/08/15 07:51 UTC NOAA

TAF
AMD RCTP 150739Z 1507/1612 34010KT 6000 FEW015 BKN032
TEMPO 1507/1509 2200 TSRA SCT006 FEW008CB BKN012 BKN040
TEMPO 1509/1512 32005KT 4000 SHRA SCT008 FEW012CB BKN016 BKN040
BECMG 1512/1514 16005KT
BECMG 1600/1602 03005KT
TEMPO 1602/1606 02010KT
TEMPO 1606/1610 04012KT 4000 SHRA FEW008 FEW012CB BKN018 BKN040

Example: see airport list